createdAt,value
2022-12-14T00:00:03.440Z,100105.45
2022-12-14T00:03:02.719Z,100101.23
2022-12-14T00:05:31.765Z,100098.63
2022-12-14T00:08:00.673Z,100097.90
2022-12-14T00:10:29.882Z,100094.20
2022-12-14T00:12:58.735Z,100094.06
2022-12-14T00:15:27.871Z,100093.08
2022-12-14T00:17:56.678Z,100092.05
2022-12-14T00:20:27.583Z,100091.81
2022-12-14T00:22:57.914Z,100090.59
2022-12-14T00:25:26.667Z,100090.95
2022-12-14T00:27:55.450Z,100084.70
2022-12-14T00:30:24.287Z,100082.77
2022-12-14T00:32:53.550Z,100080.33
2022-12-14T00:35:23.090Z,100075.89
2022-12-14T00:37:51.816Z,100075.14
2022-12-14T00:40:20.508Z,100073.48
2022-12-14T00:42:49.229Z,100072.80
2022-12-14T00:45:17.949Z,100072.94
2022-12-14T00:47:46.726Z,100070.39
2022-12-14T00:50:15.436Z,100070.67
2022-12-14T00:52:44.159Z,100069.94
2022-12-14T00:55:12.849Z,100065.41
2022-12-14T00:57:41.581Z,100065.48
2022-12-14T01:00:11.940Z,100069.00
2022-12-14T01:02:40.772Z,100071.33
2022-12-14T01:05:10.565Z,100071.09
2022-12-14T01:07:39.228Z,100066.84
2022-12-14T01:10:09.071Z,100064.60
2022-12-14T01:12:37.835Z,100063.00
2022-12-14T01:15:07.260Z,100062.73
2022-12-14T01:17:36.124Z,100063.58
2022-12-14T01:20:06.032Z,100067.71
2022-12-14T01:22:34.796Z,100062.05
2022-12-14T01:25:05.361Z,100059.36
2022-12-14T01:27:34.105Z,100055.77
2022-12-14T01:30:04.486Z,100053.09
2022-12-14T01:32:34.982Z,100050.38
2022-12-14T01:35:04.064Z,100050.64
2022-12-14T01:37:32.952Z,100047.32
2022-12-14T01:40:01.599Z,100047.24
2022-12-14T01:42:30.463Z,100047.39
2022-12-14T01:44:59.183Z,100051.27
2022-12-14T01:47:40.928Z,100051.42
2022-12-14T01:50:26.464Z,100052.73
2022-12-14T01:53:02.824Z,100049.58
2022-12-14T01:55:38.452Z,100043.73
2022-12-14T01:58:26.382Z,100039.52
2022-12-14T02:00:58.530Z,100034.94
2022-12-14T02:03:37.121Z,100036.35
2022-12-14T02:06:19.918Z,100038.05
2022-12-14T02:08:52.500Z,100044.53
2022-12-14T02:11:38.856Z,100047.42
2022-12-14T02:14:07.539Z,100047.66
2022-12-14T02:16:38.729Z,100053.09
2022-12-14T02:19:07.449Z,100053.05
2022-12-14T02:22:15.311Z,100053.15
2022-12-14T02:25:11.959Z,100051.95
2022-12-14T02:28:11.138Z,100053.55
2022-12-14T02:30:42.866Z,100053.89
2022-12-14T02:33:53.935Z,100045.52
2022-12-14T02:36:40.116Z,100042.47
2022-12-14T02:39:28.467Z,100040.29
2022-12-14T02:42:20.257Z,100037.52
2022-12-14T02:45:11.108Z,100035.28
2022-12-14T02:47:59.872Z,100030.25
2022-12-14T02:51:08.682Z,100029.44
2022-12-14T02:53:57.069Z,100026.84
2022-12-14T02:56:37.502Z,100029.09
2022-12-14T02:59:08.433Z,100027.84
2022-12-14T03:01:39.227Z,100029.70
2022-12-14T03:04:08.366Z,100030.67
2022-12-14T03:06:37.452Z,100030.50
2022-12-14T03:09:17.644Z,100032.89
2022-12-14T03:11:56.330Z,100034.11
2022-12-14T03:14:43.575Z,100029.09
2022-12-14T03:17:19.879Z,100026.55
2022-12-14T03:20:13.548Z,100022.91
2022-12-14T03:22:47.286Z,100019.12
2022-12-14T03:25:46.392Z,100013.04
2022-12-14T03:28:26.864Z,100014.02
2022-12-14T03:31:11.157Z,100016.80
2022-12-14T03:33:43.070Z,100014.83
2022-12-14T03:36:32.736Z,100013.30
2022-12-14T03:39:06.758Z,100012.04
2022-12-14T03:42:08.031Z,100007.95
2022-12-14T03:45:03.710Z,100010.69
2022-12-14T03:48:15.716Z,100016.70
2022-12-14T03:50:53.004Z,100013.70
2022-12-14T03:53:47.779Z,100015.58
2022-12-14T03:56:16.428Z,100008.13
2022-12-14T03:59:25.766Z,100007.29
2022-12-14T04:02:46.942Z,100001.84
2022-12-14T04:05:55.360Z,100002.88
2022-12-14T04:08:42.017Z,100002.04
2022-12-14T04:11:35.201Z,100001.23
2022-12-14T04:14:44.729Z,100000.91
2022-12-14T04:17:38.577Z,99999.07
2022-12-14T04:20:20.345Z,99995.54
2022-12-14T04:22:58.687Z,99993.77
2022-12-14T04:25:54.270Z,99992.51
2022-12-14T04:29:12.528Z,99994.10
2022-12-14T04:31:49.254Z,99999.11
2022-12-14T04:34:21.306Z,100002.74
2022-12-14T04:36:58.704Z,99999.48
2022-12-14T04:39:39.536Z,99994.55
2022-12-14T04:42:10.876Z,99988.39
2022-12-14T04:44:49.896Z,99986.95
2022-12-14T04:47:19.949Z,99983.06
2022-12-14T04:50:06.500Z,99972.80
2022-12-14T04:52:46.523Z,99972.27
2022-12-14T04:55:28.529Z,99965.82
2022-12-14T04:58:12.847Z,99966.35
2022-12-14T05:01:20.119Z,99970.11
2022-12-14T05:04:12.929Z,99969.94
2022-12-14T05:07:00.187Z,99968.11
2022-12-14T05:09:39.249Z,99969.27
2022-12-14T05:12:18.479Z,99968.13
2022-12-14T05:15:10.681Z,99962.29
2022-12-14T05:17:41.825Z,99954.69
2022-12-14T05:20:20.962Z,99954.11
2022-12-14T05:22:50.777Z,99953.86
2022-12-14T05:25:19.467Z,99950.52
2022-12-14T05:27:48.181Z,99947.63
2022-12-14T05:30:17.014Z,99949.79
2022-12-14T05:32:45.861Z,99950.30
2022-12-14T05:35:15.905Z,99955.95
2022-12-14T05:37:44.810Z,99958.86
2022-12-14T05:40:13.982Z,99956.10
2022-12-14T05:42:45.368Z,99952.80
2022-12-14T05:45:16.636Z,99946.52
2022-12-14T05:47:45.472Z,99944.70
2022-12-14T05:50:14.373Z,99943.98
2022-12-14T05:52:43.054Z,99944.83
2022-12-14T05:55:11.754Z,99947.50
2022-12-14T05:57:40.398Z,99948.91
2022-12-14T06:00:11.077Z,99948.18
2022-12-14T06:02:39.864Z,99944.89
2022-12-14T06:05:09.116Z,99943.14
2022-12-14T06:07:37.840Z,99940.67
2022-12-14T06:10:07.059Z,99938.67
2022-12-14T06:12:35.810Z,99937.78
2022-12-14T06:15:05.291Z,99939.63
2022-12-14T06:17:34.107Z,99943.16
2022-12-14T06:20:02.916Z,99942.41
2022-12-14T06:22:31.690Z,99940.95
2022-12-14T06:25:00.366Z,99934.29
2022-12-14T06:27:29.382Z,99931.39
2022-12-14T06:29:58.257Z,99929.52
2022-12-14T06:32:26.982Z,99928.77
2022-12-14T06:34:55.948Z,99925.90
2022-12-14T06:37:24.767Z,99925.46
2022-12-14T06:39:54.536Z,99924.48
2022-12-14T06:42:25.359Z,99925.63
2022-12-14T06:44:54.080Z,99919.65
2022-12-14T06:47:22.818Z,99917.52
2022-12-14T06:49:51.571Z,99920.67
2022-12-14T06:52:26.402Z,99914.14
2022-12-14T06:54:55.489Z,99913.19
2022-12-14T06:57:24.179Z,99916.28
2022-12-14T06:59:53.073Z,99915.59
2022-12-14T07:02:21.894Z,99917.45
2022-12-14T07:04:50.809Z,99913.71
2022-12-14T07:07:19.514Z,99907.53
2022-12-14T07:09:48.780Z,99908.73
2022-12-14T07:12:17.470Z,99906.89
2022-12-14T07:14:46.222Z,99902.98
2022-12-14T07:17:14.990Z,99898.97
2022-12-14T07:19:44.179Z,99900.51
2022-12-14T07:22:18.002Z,99895.00
2022-12-14T07:24:46.881Z,99891.02
2022-12-14T07:27:18.842Z,99890.36
2022-12-14T07:29:47.550Z,99885.64
2022-12-14T07:32:16.235Z,99884.98
2022-12-14T07:34:44.966Z,99879.98
2022-12-14T07:37:13.957Z,99882.43
2022-12-14T07:39:43.164Z,99879.36
2022-12-14T07:42:13.118Z,99881.17
2022-12-14T07:44:44.971Z,99884.39
2022-12-14T07:47:16.734Z,99882.27
2022-12-14T07:49:45.704Z,99884.05
2022-12-14T07:52:18.930Z,99881.52
2022-12-14T07:54:48.693Z,99881.65
2022-12-14T07:57:17.401Z,99880.82
2022-12-14T07:59:46.245Z,99877.65
2022-12-14T08:02:15.480Z,99878.04
2022-12-14T08:04:44.586Z,99875.92
2022-12-14T08:07:13.487Z,99871.40
2022-12-14T08:09:42.174Z,99868.55
2022-12-14T08:12:10.931Z,99865.45
2022-12-14T08:14:39.801Z,99868.31
2022-12-14T08:17:08.605Z,99866.46
2022-12-14T08:19:37.420Z,99862.31
2022-12-14T08:22:07.185Z,99861.59
2022-12-14T08:24:35.917Z,99857.30
2022-12-14T08:27:04.783Z,99856.62
2022-12-14T08:29:33.506Z,99858.34
2022-12-14T08:32:02.820Z,99855.81
2022-12-14T08:34:31.583Z,99851.48
2022-12-14T08:37:00.269Z,99851.23
2022-12-14T08:39:29.027Z,99850.17
2022-12-14T08:41:57.831Z,99847.84
2022-12-14T08:44:26.707Z,99847.84
2022-12-14T08:46:55.506Z,99847.58
2022-12-14T08:49:27.741Z,99849.70
2022-12-14T08:52:00.928Z,99852.17
2022-12-14T08:54:29.992Z,99852.41
2022-12-14T08:56:58.876Z,99853.91
2022-12-14T08:59:59.534Z,99848.53
2022-12-14T09:02:16.334Z,99846.81
2022-12-14T09:04:45.090Z,99845.43
2022-12-14T09:07:13.839Z,99842.09
2022-12-14T09:09:42.604Z,99838.24
2022-12-14T09:12:11.366Z,99832.59
2022-12-14T09:14:40.066Z,99832.27
2022-12-14T09:17:08.781Z,99829.90
2022-12-14T09:19:37.491Z,99830.89
2022-12-14T09:22:06.360Z,99832.00
2022-12-14T09:24:35.765Z,99830.90
2022-12-14T09:27:04.562Z,99830.45
2022-12-14T09:29:33.342Z,99825.73
2022-12-14T09:32:02.273Z,99821.75
2022-12-14T09:34:34.003Z,99814.97
2022-12-14T09:37:04.736Z,99812.91
2022-12-14T09:39:34.443Z,99808.07
2022-12-14T09:42:08.609Z,99805.32
2022-12-14T09:44:49.887Z,99805.94
2022-12-14T09:47:37.421Z,99799.52
2022-12-14T09:50:14.769Z,99795.70
2022-12-14T09:52:48.848Z,99781.65
2022-12-14T09:55:29.364Z,99776.71
2022-12-14T09:58:29.383Z,99773.34
2022-12-14T10:01:18.301Z,99763.59
2022-12-14T10:04:25.324Z,99760.09
2022-12-14T10:07:24.252Z,99760.13
2022-12-14T10:10:26.699Z,99754.95
2022-12-14T10:13:23.795Z,99748.45
2022-12-14T10:16:11.109Z,99743.79
2022-12-14T10:19:01.158Z,99738.36
2022-12-14T10:22:00.581Z,99733.88
2022-12-14T10:24:43.912Z,99723.73
2022-12-14T10:27:37.972Z,99719.78
2022-12-14T10:30:21.274Z,99716.73
2022-12-14T10:33:05.323Z,99715.35
2022-12-14T10:35:42.938Z,99708.95
2022-12-14T10:38:25.236Z,99702.07
2022-12-14T10:41:07.219Z,99693.02
2022-12-14T10:44:01.501Z,99690.95
2022-12-14T10:46:50.619Z,99687.66
2022-12-14T10:49:38.191Z,99682.95
2022-12-14T10:52:18.704Z,99676.08
2022-12-14T10:54:58.620Z,99676.32
2022-12-14T10:57:28.488Z,99673.88
2022-12-14T11:00:09.600Z,99667.71
2022-12-14T11:02:44.169Z,99657.77
2022-12-14T11:05:37.779Z,99655.96
2022-12-14T11:08:08.518Z,99653.05
2022-12-14T11:10:40.858Z,99647.40
2022-12-14T11:13:21.571Z,99638.30
2022-12-14T11:15:53.069Z,99632.07
2022-12-14T11:18:31.386Z,99631.94
2022-12-14T11:21:05.611Z,99633.84
2022-12-14T11:23:40.318Z,99635.52
2022-12-14T11:26:42.303Z,99635.63
2022-12-14T11:29:31.942Z,99628.21
2022-12-14T11:32:01.442Z,99626.54
2022-12-14T11:34:40.581Z,99621.67
2022-12-14T11:37:30.476Z,99622.74
2022-12-14T11:40:04.050Z,99617.35
2022-12-14T11:42:34.138Z,99613.34
2022-12-14T11:45:25.946Z,99608.39
2022-12-14T11:48:13.596Z,99606.00
2022-12-14T11:50:44.773Z,99603.65
2022-12-14T11:53:18.469Z,99595.86
2022-12-14T11:56:00.037Z,99586.86
2022-12-14T11:58:35.731Z,99584.38
2022-12-14T12:01:26.268Z,99575.88
2022-12-14T12:03:58.927Z,99571.14
2022-12-14T12:06:30.215Z,99568.56
2022-12-14T12:09:02.915Z,99565.77
2022-12-14T12:11:34.842Z,99557.81
2022-12-14T12:14:22.863Z,99552.80
2022-12-14T12:16:53.261Z,99549.48
2022-12-14T12:19:30.837Z,99546.89
2022-12-14T12:22:05.481Z,99545.86
2022-12-14T12:25:24.918Z,99543.64
2022-12-14T12:28:11.838Z,99545.34
2022-12-14T12:30:45.729Z,99545.52
2022-12-14T12:33:58.087Z,99541.61
2022-12-14T12:36:27.638Z,99534.49
2022-12-14T12:39:06.776Z,99525.30
2022-12-14T12:42:18.058Z,99524.41
2022-12-14T12:45:41.024Z,99526.74
2022-12-14T12:48:16.957Z,99519.73
2022-12-14T12:50:51.407Z,99518.02
2022-12-14T12:53:40.048Z,99516.13
2022-12-14T12:56:26.835Z,99510.98
2022-12-14T12:58:56.631Z,99505.20
2022-12-14T13:01:50.102Z,99499.42
2022-12-14T13:04:36.170Z,99498.20
2022-12-14T13:07:21.209Z,99494.73
2022-12-14T13:10:05.985Z,99487.36
2022-12-14T13:12:43.313Z,99484.11
2022-12-14T13:15:33.426Z,99481.39
2022-12-14T13:18:40.652Z,99475.06
2022-12-14T13:21:29.208Z,99471.27
2022-12-14T13:23:59.112Z,99473.80
2022-12-14T13:26:59.331Z,99471.78
2022-12-14T13:29:40.354Z,99465.33
2022-12-14T13:32:44.732Z,99465.48
2022-12-14T13:36:08.579Z,99464.75
2022-12-14T13:38:47.378Z,99463.18
2022-12-14T13:41:34.886Z,99460.77
2022-12-14T13:44:40.179Z,99456.80
2022-12-14T13:47:23.051Z,99454.77
2022-12-14T13:52:50.337Z,99443.25
2022-12-14T13:55:28.998Z,99439.31
2022-12-14T13:58:19.637Z,99440.31
2022-12-14T14:00:58.836Z,99439.77
2022-12-14T14:03:37.420Z,99436.83
2022-12-14T14:06:12.688Z,99432.30
2022-12-14T14:08:44.894Z,99431.17
2022-12-14T14:11:39.131Z,99427.08
2022-12-14T14:14:48.213Z,99422.10
2022-12-14T14:17:35.350Z,99421.02
2022-12-14T14:20:36.398Z,99415.39
2022-12-14T14:23:14.255Z,99409.27
2022-12-14T14:25:51.670Z,99409.36
2022-12-14T14:28:30.615Z,99411.17
2022-12-14T14:30:59.954Z,99414.00
2022-12-14T14:33:49.099Z,99412.09
2022-12-14T14:36:35.242Z,99404.94
2022-12-14T14:39:54.613Z,99400.16
2022-12-14T14:42:24.179Z,99396.95
2022-12-14T14:44:59.038Z,99400.02
2022-12-14T14:47:40.595Z,99397.86
2022-12-14T14:50:25.788Z,99396.20
2022-12-14T14:53:11.554Z,99391.82
2022-12-14T14:55:53.805Z,99390.70
2022-12-14T14:58:38.959Z,99391.78
2022-12-14T15:01:31.462Z,99387.92
2022-12-14T15:04:16.959Z,99383.52
2022-12-14T15:06:58.507Z,99378.02
2022-12-14T15:09:35.815Z,99372.27
2022-12-14T15:12:40.819Z,99365.69
2022-12-14T15:15:37.096Z,99358.27
2022-12-14T15:18:16.293Z,99351.98
2022-12-14T15:20:54.010Z,99356.38
2022-12-14T15:23:23.431Z,99357.24
2022-12-14T15:26:01.688Z,99357.98
2022-12-14T15:28:30.399Z,99358.67
2022-12-14T15:31:00.449Z,99353.59
2022-12-14T15:33:34.679Z,99352.61
2022-12-14T15:36:17.215Z,99350.27
2022-12-14T15:38:55.760Z,99348.39
2022-12-14T15:41:29.185Z,99341.77
2022-12-14T15:44:00.282Z,99341.48
2022-12-14T15:46:40.225Z,99337.08
2022-12-14T15:49:23.204Z,99333.52
2022-12-14T15:51:53.706Z,99334.40
2022-12-14T15:54:26.393Z,99333.08
2022-12-14T15:57:00.123Z,99324.27
2022-12-14T15:59:36.111Z,99319.69
2022-12-14T16:02:28.212Z,99316.64
2022-12-14T16:05:01.588Z,99318.70
2022-12-14T16:07:39.153Z,99320.76
2022-12-14T16:10:34.458Z,99317.45
2022-12-14T16:13:19.615Z,99314.45
2022-12-14T16:15:50.879Z,99314.98
2022-12-14T16:18:20.821Z,99317.05
2022-12-14T16:21:02.598Z,99315.88
2022-12-14T16:23:37.943Z,99312.55
2022-12-14T16:26:14.463Z,99310.35
2022-12-14T16:28:43.269Z,99305.08
2022-12-14T16:31:14.934Z,99304.59
2022-12-14T16:33:44.628Z,99303.95
2022-12-14T16:36:25.565Z,99294.27
2022-12-14T16:39:21.876Z,99285.64
2022-12-14T16:42:02.841Z,99280.73
2022-12-14T16:44:34.244Z,99279.21
2022-12-14T16:47:03.047Z,99277.37
2022-12-14T16:49:40.960Z,99274.99
2022-12-14T16:52:11.938Z,99274.14
2022-12-14T16:54:41.439Z,99273.46
2022-12-14T16:57:24.477Z,99269.59
2022-12-14T17:00:02.180Z,99270.62
2022-12-14T17:02:40.697Z,99263.83
2022-12-14T17:05:20.527Z,99256.36
2022-12-14T17:07:50.223Z,99256.39
2022-12-14T17:10:23.408Z,99249.77
2022-12-14T17:13:00.170Z,99240.94
2022-12-14T17:15:34.171Z,99243.84
2022-12-14T17:18:05.115Z,99243.54
2022-12-14T17:20:36.955Z,99246.28
2022-12-14T17:23:09.984Z,99250.05
2022-12-14T17:25:42.034Z,99250.58
2022-12-14T17:28:28.980Z,99253.48
2022-12-14T17:31:01.903Z,99250.59
2022-12-14T17:33:31.802Z,99250.43
2022-12-14T17:36:01.248Z,99250.77
2022-12-14T17:38:31.478Z,99250.58
2022-12-14T17:41:00.349Z,99247.54
2022-12-14T17:43:29.734Z,99246.52
2022-12-14T17:46:01.221Z,99243.30
2022-12-14T17:48:30.317Z,99243.47
2022-12-14T17:50:59.132Z,99240.07
2022-12-14T17:53:31.392Z,99238.04
2022-12-14T17:56:00.707Z,99234.29
2022-12-14T17:58:29.447Z,99229.20
2022-12-14T18:01:01.876Z,99223.79
2022-12-14T18:03:36.628Z,99223.95
2022-12-14T18:06:06.010Z,99222.09
2022-12-14T18:08:34.844Z,99217.50
2022-12-14T18:11:11.828Z,99214.61
2022-12-14T18:13:44.222Z,99213.42
2022-12-14T18:16:17.048Z,99214.09
2022-12-14T18:18:46.276Z,99209.52
2022-12-14T18:21:50.785Z,99208.33
2022-12-14T18:24:25.633Z,99206.46
2022-12-14T18:26:57.022Z,99210.37
2022-12-14T18:29:26.331Z,99216.02
2022-12-14T18:31:55.234Z,99220.75
2022-12-14T18:34:24.080Z,99223.80
2022-12-14T18:36:52.945Z,99220.23
2022-12-14T18:39:22.558Z,99217.34
2022-12-14T18:41:51.715Z,99212.24
2022-12-14T18:44:20.666Z,99203.73
2022-12-14T18:46:49.776Z,99197.77
2022-12-14T18:49:18.607Z,99203.01
2022-12-14T18:51:47.451Z,99207.77
2022-12-14T18:54:16.439Z,99207.23
2022-12-14T18:56:45.293Z,99202.15
2022-12-14T18:59:18.586Z,99200.63
2022-12-14T19:01:47.431Z,99200.48
2022-12-14T19:04:16.450Z,99192.16
2022-12-14T19:06:46.139Z,99195.55
2022-12-14T19:09:15.214Z,99199.27
2022-12-14T19:11:44.458Z,99200.09
2022-12-14T19:14:13.234Z,99200.75
2022-12-14T19:16:42.058Z,99202.45
2022-12-14T19:19:10.965Z,99204.30
2022-12-14T19:21:40.255Z,99198.70
2022-12-14T19:24:09.244Z,99197.83
2022-12-14T19:26:39.104Z,99196.49
2022-12-14T19:29:07.969Z,99193.59
2022-12-14T19:31:36.841Z,99188.19
2022-12-14T19:34:05.925Z,99190.91
2022-12-14T19:36:34.697Z,99188.84
2022-12-14T19:39:03.516Z,99190.36
2022-12-14T19:41:32.399Z,99191.21
2022-12-14T19:44:01.526Z,99191.91
2022-12-14T19:46:30.471Z,99195.14
2022-12-14T19:49:00.021Z,99195.66
2022-12-14T19:51:29.093Z,99192.09
2022-12-14T19:53:58.050Z,99190.56
2022-12-14T19:56:26.894Z,99187.85
2022-12-14T19:58:58.425Z,99185.64
2022-12-14T20:01:31.878Z,99181.90
2022-12-14T20:04:02.038Z,99182.08
2022-12-14T20:06:32.386Z,99180.05
2022-12-14T20:09:05.222Z,99179.73
2022-12-14T20:11:34.233Z,99180.41
2022-12-14T20:14:03.425Z,99185.33
2022-12-14T20:16:32.750Z,99185.64
2022-12-14T20:19:02.253Z,99178.52
2022-12-14T20:21:31.498Z,99174.45
2022-12-14T20:24:01.877Z,99173.10
2022-12-14T20:26:30.972Z,99172.41
2022-12-14T20:29:01.575Z,99169.70
2022-12-14T20:31:31.105Z,99166.14
2022-12-14T20:34:05.061Z,99164.28
2022-12-14T20:36:34.099Z,99163.09
2022-12-14T20:39:05.445Z,99156.66
2022-12-14T20:41:34.498Z,99153.61
2022-12-14T20:44:11.841Z,99153.44
2022-12-14T20:46:44.969Z,99157.52
2022-12-14T20:49:18.495Z,99152.79
2022-12-14T20:51:48.883Z,99151.77
2022-12-14T20:54:19.924Z,99151.27
2022-12-14T20:56:49.285Z,99149.58
2022-12-14T20:59:19.198Z,99150.11
2022-12-14T21:01:55.032Z,99147.21
2022-12-14T21:04:25.185Z,99137.86
2022-12-14T21:06:54.218Z,99133.11
2022-12-14T21:09:23.329Z,99137.71
2022-12-14T21:12:10.786Z,99138.89
2022-12-14T21:14:48.167Z,99142.12
2022-12-14T21:17:17.195Z,99143.48
2022-12-14T21:19:46.151Z,99144.16
2022-12-14T21:22:19.960Z,99145.36
2022-12-14T21:25:06.181Z,99142.81
2022-12-14T21:27:39.101Z,99143.34
2022-12-14T21:30:13.318Z,99142.84
2022-12-14T21:32:42.338Z,99138.77
2022-12-14T21:35:13.306Z,99138.43
2022-12-14T21:37:42.190Z,99136.90
2022-12-14T21:40:31.446Z,99137.42
2022-12-14T21:43:00.881Z,99136.06
2022-12-14T21:45:29.792Z,99139.30
2022-12-14T21:47:58.565Z,99138.12
2022-12-14T21:50:27.299Z,99137.95
2022-12-14T21:52:56.013Z,99134.54
2022-12-14T21:55:24.788Z,99131.30
2022-12-14T21:58:12.113Z,99130.63
2022-12-14T22:00:40.870Z,99131.99
2022-12-14T22:03:10.019Z,99129.45
2022-12-14T22:05:39.834Z,99126.89
2022-12-14T22:08:08.569Z,99126.21
2022-12-14T22:10:37.414Z,99124.35
2022-12-14T22:13:06.387Z,99124.35
2022-12-14T22:15:35.857Z,99128.27
2022-12-14T22:18:04.805Z,99123.16
2022-12-14T22:20:33.737Z,99123.48
2022-12-14T22:23:02.628Z,99125.71
2022-12-14T22:25:34.769Z,99126.05
2022-12-14T22:28:06.632Z,99124.34
2022-12-14T22:30:35.357Z,99123.51
2022-12-14T22:33:05.532Z,99125.02
2022-12-14T22:35:34.272Z,99123.84
2022-12-14T22:38:03.001Z,99118.75
2022-12-14T22:40:32.795Z,99117.39
2022-12-14T22:43:01.748Z,99117.39
2022-12-14T22:45:30.584Z,99119.93
2022-12-14T22:47:59.277Z,99116.37
2022-12-14T22:50:30.155Z,99118.23
2022-12-14T22:53:01.357Z,99118.91
2022-12-14T22:55:34.397Z,99120.79
2022-12-14T22:58:09.796Z,99120.96
2022-12-14T23:00:38.521Z,99118.41
2022-12-14T23:03:07.478Z,99121.98
2022-12-14T23:05:38.576Z,99120.95
2022-12-14T23:08:07.320Z,99120.27
2022-12-14T23:10:54.658Z,99118.58
2022-12-14T23:13:41.974Z,99116.88
2022-12-14T23:16:29.285Z,99113.31
2022-12-14T23:19:16.651Z,99112.96
2022-12-14T23:22:03.938Z,99109.23
2022-12-14T23:24:51.484Z,99110.08
2022-12-14T23:27:39.008Z,99107.19
2022-12-14T23:30:28.033Z,99106.85
2022-12-14T23:33:15.904Z,99103.61
2022-12-14T23:36:03.098Z,99103.95
2022-12-14T23:38:50.650Z,99106.52
2022-12-14T23:41:37.969Z,99108.03
2022-12-14T23:44:25.275Z,99112.46
2022-12-14T23:47:12.419Z,99116.70
2022-12-14T23:49:59.700Z,99117.89
2022-12-14T23:52:47.003Z,99117.55
2022-12-14T23:55:34.299Z,99116.20
2022-12-14T23:58:21.524Z,99121.81
